sensor_id;sensor_type;location;lat;lon;timestamp;P1;durP1;ratioP1;P2;durP2;ratioP2
33902;SDS011;20194;50.950;5.346;2023-02-12T00:01:41;83.00;;;36.88;;
33902;SDS011;20194;50.950;5.346;2023-02-12T00:04:06;87.30;;;36.85;;
33902;SDS011;20194;50.950;5.346;2023-02-12T00:06:33;92.60;;;36.85;;
33902;SDS011;20194;50.950;5.346;2023-02-12T00:08:59;83.70;;;36.72;;
33902;SDS011;20194;50.950;5.346;2023-02-12T00:11:25;86.28;;;39.28;;
33902;SDS011;20194;50.950;5.346;2023-02-12T00:13:53;86.25;;;36.33;;
33902;SDS011;20194;50.950;5.346;2023-02-12T00:16:21;87.22;;;37.38;;
33902;SDS011;20194;50.950;5.346;2023-02-12T00:18:51;83.15;;;36.33;;
33902;SDS011;20194;50.950;5.346;2023-02-12T00:21:19;90.85;;;36.55;;
33902;SDS011;20194;50.950;5.346;2023-02-12T00:23:45;84.22;;;35.83;;
33902;SDS011;20194;50.950;5.346;2023-02-12T00:26:11;95.68;;;37.22;;
33902;SDS011;20194;50.950;5.346;2023-02-12T00:28:39;88.85;;;38.03;;
33902;SDS011;20194;50.950;5.346;2023-02-12T00:31:07;89.13;;;35.83;;
33902;SDS011;20194;50.950;5.346;2023-02-12T00:33:34;90.45;;;35.78;;
33902;SDS011;20194;50.950;5.346;2023-02-12T00:36:00;84.95;;;36.58;;
33902;SDS011;20194;50.950;5.346;2023-02-12T00:38:26;81.57;;;34.63;;
33902;SDS011;20194;50.950;5.346;2023-02-12T00:40:51;92.20;;;37.72;;
33902;SDS011;20194;50.950;5.346;2023-02-12T00:43:17;85.95;;;35.13;;
33902;SDS011;20194;50.950;5.346;2023-02-12T00:45:44;85.80;;;34.25;;
33902;SDS011;20194;50.950;5.346;2023-02-12T00:48:10;82.38;;;37.28;;
33902;SDS011;20194;50.950;5.346;2023-02-12T00:50:37;92.68;;;37.67;;
33902;SDS011;20194;50.950;5.346;2023-02-12T00:53:05;86.85;;;37.30;;
33902;SDS011;20194;50.950;5.346;2023-02-12T00:55:34;86.32;;;37.55;;
33902;SDS011;20194;50.950;5.346;2023-02-12T00:58:00;93.47;;;37.88;;
33902;SDS011;20194;50.950;5.346;2023-02-12T01:00:26;83.35;;;35.70;;
33902;SDS011;20194;50.950;5.346;2023-02-12T01:02:52;82.53;;;36.33;;
33902;SDS011;20194;50.950;5.346;2023-02-12T01:05:17;91.25;;;35.78;;
33902;SDS011;20194;50.950;5.346;2023-02-12T01:07:47;85.68;;;38.10;;
33902;SDS011;20194;50.950;5.346;2023-02-12T01:10:14;92.22;;;36.88;;
33902;SDS011;20194;50.950;5.346;2023-02-12T01:12:40;93.25;;;38.15;;
33902;SDS011;20194;50.950;5.346;2023-02-12T01:15:06;83.72;;;35.70;;
33902;SDS011;20194;50.950;5.346;2023-02-12T01:17:34;89.68;;;36.58;;
33902;SDS011;20194;50.950;5.346;2023-02-12T01:20:00;86.68;;;37.13;;
33902;SDS011;20194;50.950;5.346;2023-02-12T01:22:26;88.97;;;36.85;;
33902;SDS011;20194;50.950;5.346;2023-02-12T01:24:52;99.13;;;39.08;;
33902;SDS011;20194;50.950;5.346;2023-02-12T01:27:19;88.47;;;37.85;;
33902;SDS011;20194;50.950;5.346;2023-02-12T01:29:44;89.70;;;39.53;;
33902;SDS011;20194;50.950;5.346;2023-02-12T01:32:10;94.65;;;38.20;;
33902;SDS011;20194;50.950;5.346;2023-02-12T01:34:36;91.32;;;37.63;;
33902;SDS011;20194;50.950;5.346;2023-02-12T01:37:02;84.20;;;36.95;;
33902;SDS011;20194;50.950;5.346;2023-02-12T01:39:29;87.82;;;36.63;;
33902;SDS011;20194;50.950;5.346;2023-02-12T01:41:54;86.13;;;37.42;;
33902;SDS011;20194;50.950;5.346;2023-02-12T01:44:21;82.40;;;36.15;;
33902;SDS011;20194;50.950;5.346;2023-02-12T01:46:59;79.00;;;35.10;;
33902;SDS011;20194;50.950;5.346;2023-02-12T01:49:29;83.43;;;36.15;;
33902;SDS011;20194;50.950;5.346;2023-02-12T01:54:46;86.13;;;36.00;;
33902;SDS011;20194;50.950;5.346;2023-02-12T01:57:14;83.15;;;36.00;;
33902;SDS011;20194;50.950;5.346;2023-02-12T01:59:42;85.95;;;37.05;;
33902;SDS011;20194;50.950;5.346;2023-02-12T02:02:09;88.22;;;35.92;;
33902;SDS011;20194;50.950;5.346;2023-02-12T02:04:36;93.35;;;38.45;;
33902;SDS011;20194;50.950;5.346;2023-02-12T02:07:09;92.10;;;36.22;;
33902;SDS011;20194;50.950;5.346;2023-02-12T02:09:36;89.25;;;36.28;;
33902;SDS011;20194;50.950;5.346;2023-02-12T02:12:03;91.47;;;38.58;;
33902;SDS011;20194;50.950;5.346;2023-02-12T02:14:49;96.20;;;39.53;;
33902;SDS011;20194;50.950;5.346;2023-02-12T02:17:36;95.25;;;39.22;;
33902;SDS011;20194;50.950;5.346;2023-02-12T02:32:11;88.93;;;34.63;;
33902;SDS011;20194;50.950;5.346;2023-02-12T02:34:44;78.88;;;33.25;;
33902;SDS011;20194;50.950;5.346;2023-02-12T02:37:19;91.55;;;38.75;;
33902;SDS011;20194;50.950;5.346;2023-02-12T02:40:00;87.38;;;36.92;;
33902;SDS011;20194;50.950;5.346;2023-02-12T02:42:39;88.88;;;37.17;;
33902;SDS011;20194;50.950;5.346;2023-02-12T02:48:17;83.85;;;36.15;;
33902;SDS011;20194;50.950;5.346;2023-02-12T02:50:52;81.72;;;36.33;;
33902;SDS011;20194;50.950;5.346;2023-02-12T02:56:02;85.28;;;36.00;;
33902;SDS011;20194;50.950;5.346;2023-02-12T02:58:34;89.72;;;35.85;;
33902;SDS011;20194;50.950;5.346;2023-02-12T03:01:09;90.97;;;37.42;;
33902;SDS011;20194;50.950;5.346;2023-02-12T03:06:40;81.07;;;34.58;;
33902;SDS011;20194;50.950;5.346;2023-02-12T03:09:20;77.97;;;33.90;;
33902;SDS011;20194;50.950;5.346;2023-02-12T03:11:51;86.53;;;37.10;;
33902;SDS011;20194;50.950;5.346;2023-02-12T03:14:25;92.13;;;38.63;;
33902;SDS011;20194;50.950;5.346;2023-02-12T03:19:31;79.07;;;33.45;;
33902;SDS011;20194;50.950;5.346;2023-02-12T03:22:07;78.10;;;33.92;;
33902;SDS011;20194;50.950;5.346;2023-02-12T03:24:38;82.80;;;36.65;;
33902;SDS011;20194;50.950;5.346;2023-02-12T03:29:59;80.88;;;36.10;;
33902;SDS011;20194;50.950;5.346;2023-02-12T03:37:41;103.63;;;40.03;;
33902;SDS011;20194;50.950;5.346;2023-02-12T03:40:31;93.50;;;38.75;;
33902;SDS011;20194;50.950;5.346;2023-02-12T03:53:42;98.43;;;39.75;;
33902;SDS011;20194;50.950;5.346;2023-02-12T03:56:16;93.68;;;39.53;;
33902;SDS011;20194;50.950;5.346;2023-02-12T03:58:46;104.70;;;38.67;;
33902;SDS011;20194;50.950;5.346;2023-02-12T04:01:12;90.75;;;39.47;;
33902;SDS011;20194;50.950;5.346;2023-02-12T04:03:38;95.05;;;39.00;;
33902;SDS011;20194;50.950;5.346;2023-02-12T04:06:17;89.70;;;38.10;;
33902;SDS011;20194;50.950;5.346;2023-02-12T04:08:48;88.00;;;37.15;;
33902;SDS011;20194;50.950;5.346;2023-02-12T04:16:40;90.55;;;38.63;;
33902;SDS011;20194;50.950;5.346;2023-02-12T04:19:14;88.63;;;37.65;;
33902;SDS011;20194;50.950;5.346;2023-02-12T04:24:39;100.28;;;41.03;;
33902;SDS011;20194;50.950;5.346;2023-02-12T04:27:16;96.90;;;39.72;;
33902;SDS011;20194;50.950;5.346;2023-02-12T04:37:37;101.40;;;39.83;;
33902;SDS011;20194;50.950;5.346;2023-02-12T04:40:10;101.32;;;42.10;;
33902;SDS011;20194;50.950;5.346;2023-02-12T04:42:43;100.22;;;41.60;;
33902;SDS011;20194;50.950;5.346;2023-02-12T04:45:14;102.70;;;39.80;;
33902;SDS011;20194;50.950;5.346;2023-02-12T04:47:44;105.72;;;41.63;;
33902;SDS011;20194;50.950;5.346;2023-02-12T04:50:10;94.47;;;39.22;;
33902;SDS011;20194;50.950;5.346;2023-02-12T04:52:36;101.70;;;39.35;;
33902;SDS011;20194;50.950;5.346;2023-02-12T04:55:02;100.00;;;40.38;;
33902;SDS011;20194;50.950;5.346;2023-02-12T04:57:27;105.88;;;41.47;;
33902;SDS011;20194;50.950;5.346;2023-02-12T04:59:53;98.03;;;40.45;;
33902;SDS011;20194;50.950;5.346;2023-02-12T05:02:19;104.35;;;40.42;;
33902;SDS011;20194;50.950;5.346;2023-02-12T05:04:44;99.35;;;40.88;;
33902;SDS011;20194;50.950;5.346;2023-02-12T05:07:10;101.28;;;38.72;;
33902;SDS011;20194;50.950;5.346;2023-02-12T05:09:36;105.90;;;42.33;;
33902;SDS011;20194;50.950;5.346;2023-02-12T05:12:02;113.72;;;42.20;;
33902;SDS011;20194;50.950;5.346;2023-02-12T05:14:28;107.85;;;42.70;;
33902;SDS011;20194;50.950;5.346;2023-02-12T05:16:53;100.60;;;41.15;;
33902;SDS011;20194;50.950;5.346;2023-02-12T05:19:19;108.03;;;41.63;;
33902;SDS011;20194;50.950;5.346;2023-02-12T05:21:45;98.18;;;39.65;;
33902;SDS011;20194;50.950;5.346;2023-02-12T05:24:13;98.80;;;40.78;;
33902;SDS011;20194;50.950;5.346;2023-02-12T05:26:39;93.18;;;38.63;;
33902;SDS011;20194;50.950;5.346;2023-02-12T05:29:05;105.93;;;43.05;;
33902;SDS011;20194;50.950;5.346;2023-02-12T05:31:31;103.32;;;43.72;;
33902;SDS011;20194;50.950;5.346;2023-02-12T05:33:56;102.38;;;40.58;;
33902;SDS011;20194;50.950;5.346;2023-02-12T05:36:22;103.63;;;41.17;;
33902;SDS011;20194;50.950;5.346;2023-02-12T05:38:49;93.38;;;40.78;;
33902;SDS011;20194;50.950;5.346;2023-02-12T05:41:17;103.82;;;41.67;;
33902;SDS011;20194;50.950;5.346;2023-02-12T05:43:44;111.32;;;44.80;;
33902;SDS011;20194;50.950;5.346;2023-02-12T05:46:11;114.88;;;43.53;;
33902;SDS011;20194;50.950;5.346;2023-02-12T05:48:37;98.78;;;40.25;;
33902;SDS011;20194;50.950;5.346;2023-02-12T05:51:04;98.05;;;40.45;;
33902;SDS011;20194;50.950;5.346;2023-02-12T05:53:31;106.93;;;42.22;;
33902;SDS011;20194;50.950;5.346;2023-02-12T05:58:45;106.57;;;41.85;;
33902;SDS011;20194;50.950;5.346;2023-02-12T06:01:17;107.97;;;41.78;;
33902;SDS011;20194;50.950;5.346;2023-02-12T06:03:45;98.25;;;41.28;;
33902;SDS011;20194;50.950;5.346;2023-02-12T06:06:11;109.63;;;42.22;;
33902;SDS011;20194;50.950;5.346;2023-02-12T06:08:37;106.35;;;42.35;;
33902;SDS011;20194;50.950;5.346;2023-02-12T06:11:04;103.15;;;42.22;;
33902;SDS011;20194;50.950;5.346;2023-02-12T06:13:32;105.93;;;44.38;;
33902;SDS011;20194;50.950;5.346;2023-02-12T06:15:58;112.20;;;43.50;;
33902;SDS011;20194;50.950;5.346;2023-02-12T06:18:24;102.65;;;42.33;;
33902;SDS011;20194;50.950;5.346;2023-02-12T06:20:50;114.45;;;42.33;;
33902;SDS011;20194;50.950;5.346;2023-02-12T06:23:18;108.65;;;42.92;;
33902;SDS011;20194;50.950;5.346;2023-02-12T06:25:46;109.22;;;45.83;;
33902;SDS011;20194;50.950;5.346;2023-02-12T06:28:12;107.80;;;41.70;;
33902;SDS011;20194;50.950;5.346;2023-02-12T06:30:38;105.05;;;42.72;;
33902;SDS011;20194;50.950;5.346;2023-02-12T06:33:03;102.65;;;40.95;;
33902;SDS011;20194;50.950;5.346;2023-02-12T06:35:29;113.13;;;43.70;;
33902;SDS011;20194;50.950;5.346;2023-02-12T06:37:55;100.20;;;41.28;;
33902;SDS011;20194;50.950;5.346;2023-02-12T06:40:21;104.07;;;41.67;;
33902;SDS011;20194;50.950;5.346;2023-02-12T06:42:46;110.20;;;42.63;;
33902;SDS011;20194;50.950;5.346;2023-02-12T06:45:12;112.88;;;44.40;;
33902;SDS011;20194;50.950;5.346;2023-02-12T06:47:39;116.28;;;45.85;;
33902;SDS011;20194;50.950;5.346;2023-02-12T06:50:04;104.20;;;42.70;;
33902;SDS011;20194;50.950;5.346;2023-02-12T06:52:31;109.85;;;45.92;;
33902;SDS011;20194;50.950;5.346;2023-02-12T06:54:56;107.25;;;41.92;;
33902;SDS011;20194;50.950;5.346;2023-02-12T06:57:22;99.75;;;42.05;;
33902;SDS011;20194;50.950;5.346;2023-02-12T06:59:48;100.22;;;40.90;;
33902;SDS011;20194;50.950;5.346;2023-02-12T07:02:14;104.72;;;41.83;;
33902;SDS011;20194;50.950;5.346;2023-02-12T07:04:40;106.05;;;43.45;;
33902;SDS011;20194;50.950;5.346;2023-02-12T07:07:05;102.40;;;40.78;;
33902;SDS011;20194;50.950;5.346;2023-02-12T07:09:31;100.88;;;41.00;;
33902;SDS011;20194;50.950;5.346;2023-02-12T07:11:57;102.18;;;42.33;;
33902;SDS011;20194;50.950;5.346;2023-02-12T07:14:24;107.38;;;43.75;;
33902;SDS011;20194;50.950;5.346;2023-02-12T07:16:53;106.05;;;41.72;;
33902;SDS011;20194;50.950;5.346;2023-02-12T07:19:19;103.00;;;41.97;;
33902;SDS011;20194;50.950;5.346;2023-02-12T07:21:44;106.85;;;42.10;;
33902;SDS011;20194;50.950;5.346;2023-02-12T07:24:11;108.53;;;42.13;;
33902;SDS011;20194;50.950;5.346;2023-02-12T07:26:37;104.32;;;44.05;;
33902;SDS011;20194;50.950;5.346;2023-02-12T07:29:03;98.45;;;42.13;;
33902;SDS011;20194;50.950;5.346;2023-02-12T07:31:29;96.32;;;41.72;;
33902;SDS011;20194;50.950;5.346;2023-02-12T07:33:55;97.38;;;41.25;;
33902;SDS011;20194;50.950;5.346;2023-02-12T07:36:22;107.00;;;41.38;;
33902;SDS011;20194;50.950;5.346;2023-02-12T07:38:49;92.00;;;40.58;;
33902;SDS011;20194;50.950;5.346;2023-02-12T07:43:44;106.93;;;43.55;;
33902;SDS011;20194;50.950;5.346;2023-02-12T07:46:18;103.57;;;42.42;;
33902;SDS011;20194;50.950;5.346;2023-02-12T07:48:49;99.30;;;42.40;;
33902;SDS011;20194;50.950;5.346;2023-02-12T07:51:16;108.15;;;43.45;;
33902;SDS011;20194;50.950;5.346;2023-02-12T07:53:45;103.78;;;43.95;;
33902;SDS011;20194;50.950;5.346;2023-02-12T07:56:12;107.68;;;43.30;;
33902;SDS011;20194;50.950;5.346;2023-02-12T07:58:41;105.68;;;40.53;;
33902;SDS011;20194;50.950;5.346;2023-02-12T08:01:12;99.00;;;42.75;;
33902;SDS011;20194;50.950;5.346;2023-02-12T08:03:44;104.85;;;41.55;;
33902;SDS011;20194;50.950;5.346;2023-02-12T08:06:17;100.97;;;42.05;;
33902;SDS011;20194;50.950;5.346;2023-02-12T08:08:49;108.18;;;45.65;;
33902;SDS011;20194;50.950;5.346;2023-02-12T08:11:18;84.00;;;37.88;;
33902;SDS011;20194;50.950;5.346;2023-02-12T08:13:45;100.18;;;42.55;;
33902;SDS011;20194;50.950;5.346;2023-02-12T08:16:12;95.65;;;40.45;;
33902;SDS011;20194;50.950;5.346;2023-02-12T08:18:40;102.55;;;43.22;;
33902;SDS011;20194;50.950;5.346;2023-02-12T08:21:13;106.82;;;41.38;;
33902;SDS011;20194;50.950;5.346;2023-02-12T08:23:42;102.63;;;41.75;;
33902;SDS011;20194;50.950;5.346;2023-02-12T08:28:46;99.03;;;41.75;;
33902;SDS011;20194;50.950;5.346;2023-02-12T08:31:37;108.15;;;42.13;;
33902;SDS011;20194;50.950;5.346;2023-02-12T08:34:05;103.80;;;42.05;;
33902;SDS011;20194;50.950;5.346;2023-02-12T08:36:35;96.75;;;40.17;;
33902;SDS011;20194;50.950;5.346;2023-02-12T08:39:03;104.53;;;39.70;;
33902;SDS011;20194;50.950;5.346;2023-02-12T08:41:32;93.20;;;41.75;;
33902;SDS011;20194;50.950;5.346;2023-02-12T08:43:59;98.53;;;42.47;;
33902;SDS011;20194;50.950;5.346;2023-02-12T08:46:27;100.65;;;40.17;;
33902;SDS011;20194;50.950;5.346;2023-02-12T08:48:56;98.80;;;41.63;;
33902;SDS011;20194;50.950;5.346;2023-02-12T08:51:24;109.03;;;43.47;;
33902;SDS011;20194;50.950;5.346;2023-02-12T08:53:53;103.97;;;43.25;;
33902;SDS011;20194;50.950;5.346;2023-02-12T08:56:20;103.75;;;42.70;;
33902;SDS011;20194;50.950;5.346;2023-02-12T08:58:47;109.75;;;44.88;;
33902;SDS011;20194;50.950;5.346;2023-02-12T09:01:15;100.75;;;43.38;;
33902;SDS011;20194;50.950;5.346;2023-02-12T09:03:43;114.45;;;46.95;;
33902;SDS011;20194;50.950;5.346;2023-02-12T09:06:09;113.25;;;45.05;;
33902;SDS011;20194;50.950;5.346;2023-02-12T09:08:35;100.57;;;43.92;;
33902;SDS011;20194;50.950;5.346;2023-02-12T09:11:09;107.25;;;44.80;;
33902;SDS011;20194;50.950;5.346;2023-02-12T09:13:37;101.78;;;43.67;;
33902;SDS011;20194;50.950;5.346;2023-02-12T09:16:04;112.00;;;44.50;;
33902;SDS011;20194;50.950;5.346;2023-02-12T09:18:31;113.43;;;46.15;;
33902;SDS011;20194;50.950;5.346;2023-02-12T09:21:01;109.97;;;43.80;;
33902;SDS011;20194;50.950;5.346;2023-02-12T09:23:32;102.38;;;44.33;;
33902;SDS011;20194;50.950;5.346;2023-02-12T09:25:59;118.57;;;45.75;;
33902;SDS011;20194;50.950;5.346;2023-02-12T09:28:28;101.22;;;42.20;;
33902;SDS011;20194;50.950;5.346;2023-02-12T09:30:54;101.53;;;41.95;;
33902;SDS011;20194;50.950;5.346;2023-02-12T09:33:19;105.10;;;42.70;;
33902;SDS011;20194;50.950;5.346;2023-02-12T09:35:46;103.13;;;43.38;;
33902;SDS011;20194;50.950;5.346;2023-02-12T09:38:13;104.90;;;43.78;;
33902;SDS011;20194;50.950;5.346;2023-02-12T09:40:43;102.07;;;44.05;;
33902;SDS011;20194;50.950;5.346;2023-02-12T09:43:36;102.80;;;44.22;;
33902;SDS011;20194;50.950;5.346;2023-02-12T09:46:15;106.03;;;42.80;;
33902;SDS011;20194;50.950;5.346;2023-02-12T09:48:54;109.00;;;42.97;;
33902;SDS011;20194;50.950;5.346;2023-02-12T09:51:29;107.93;;;44.58;;
33902;SDS011;20194;50.950;5.346;2023-02-12T09:54:00;110.18;;;45.38;;
33902;SDS011;20194;50.950;5.346;2023-02-12T09:56:30;107.38;;;44.08;;
33902;SDS011;20194;50.950;5.346;2023-02-12T09:58:58;105.70;;;43.60;;
33902;SDS011;20194;50.950;5.346;2023-02-12T10:01:27;108.32;;;44.30;;
33902;SDS011;20194;50.950;5.346;2023-02-12T10:03:53;103.25;;;43.00;;
33902;SDS011;20194;50.950;5.346;2023-02-12T10:06:20;103.18;;;42.13;;
33902;SDS011;20194;50.950;5.346;2023-02-12T10:08:54;97.53;;;43.13;;
33902;SDS011;20194;50.950;5.346;2023-02-12T10:25:54;102.60;;;43.83;;
33902;SDS011;20194;50.950;5.346;2023-02-12T10:28:26;94.97;;;41.05;;
33902;SDS011;20194;50.950;5.346;2023-02-12T10:31:01;99.95;;;43.13;;
33902;SDS011;20194;50.950;5.346;2023-02-12T10:33:34;92.30;;;40.85;;
33902;SDS011;20194;50.950;5.346;2023-02-12T10:41:35;96.55;;;41.08;;
33902;SDS011;20194;50.950;5.346;2023-02-12T10:44:11;82.95;;;36.95;;
33902;SDS011;20194;50.950;5.346;2023-02-12T10:46:38;77.50;;;36.25;;
33902;SDS011;20194;50.950;5.346;2023-02-12T10:49:03;80.95;;;36.85;;
33902;SDS011;20194;50.950;5.346;2023-02-12T10:54:16;89.45;;;39.47;;
33902;SDS011;20194;50.950;5.346;2023-02-12T10:57:05;81.65;;;36.42;;
33902;SDS011;20194;50.950;5.346;2023-02-12T10:59:42;86.65;;;38.05;;
33902;SDS011;20194;50.950;5.346;2023-02-12T11:02:23;82.40;;;37.03;;
33902;SDS011;20194;50.950;5.346;2023-02-12T11:07:21;82.95;;;34.20;;
33902;SDS011;20194;50.950;5.346;2023-02-12T11:09:48;77.20;;;36.95;;
33902;SDS011;20194;50.950;5.346;2023-02-12T11:12:19;90.47;;;38.58;;
33902;SDS011;20194;50.950;5.346;2023-02-12T11:14:54;93.68;;;39.10;;
33902;SDS011;20194;50.950;5.346;2023-02-12T11:17:34;84.53;;;37.25;;
33902;SDS011;20194;50.950;5.346;2023-02-12T11:25:20;83.90;;;37.92;;
33902;SDS011;20194;50.950;5.346;2023-02-12T11:30:52;80.28;;;37.10;;
33902;SDS011;20194;50.950;5.346;2023-02-12T11:34:05;81.93;;;36.05;;
33902;SDS011;20194;50.950;5.346;2023-02-12T11:36:38;85.82;;;39.42;;
33902;SDS011;20194;50.950;5.346;2023-02-12T11:39:17;88.32;;;37.75;;
33902;SDS011;20194;50.950;5.346;2023-02-12T11:41:43;78.68;;;35.38;;
33902;SDS011;20194;50.950;5.346;2023-02-12T11:44:10;82.97;;;37.47;;
33902;SDS011;20194;50.950;5.346;2023-02-12T11:46:44;85.13;;;38.25;;
33902;SDS011;20194;50.950;5.346;2023-02-12T11:49:18;93.80;;;37.27;;
33902;SDS011;20194;50.950;5.346;2023-02-12T11:51:47;81.03;;;36.25;;
33902;SDS011;20194;50.950;5.346;2023-02-12T11:54:24;76.95;;;35.08;;
33902;SDS011;20194;50.950;5.346;2023-02-12T11:56:52;76.10;;;34.95;;
33902;SDS011;20194;50.950;5.346;2023-02-12T11:59:35;78.38;;;36.63;;
33902;SDS011;20194;50.950;5.346;2023-02-12T12:02:15;77.55;;;35.35;;
33902;SDS011;20194;50.950;5.346;2023-02-12T12:04:47;85.03;;;39.00;;
33902;SDS011;20194;50.950;5.346;2023-02-12T12:07:18;78.60;;;34.75;;
33902;SDS011;20194;50.950;5.346;2023-02-12T12:09:52;77.00;;;35.83;;
33902;SDS011;20194;50.950;5.346;2023-02-12T12:15:37;74.63;;;32.65;;
33902;SDS011;20194;50.950;5.346;2023-02-12T12:21:38;69.38;;;31.13;;
33902;SDS011;20194;50.950;5.346;2023-02-12T12:24:14;75.78;;;34.10;;
33902;SDS011;20194;50.950;5.346;2023-02-12T12:26:49;74.95;;;34.20;;
33902;SDS011;20194;50.950;5.346;2023-02-12T12:32:19;70.82;;;33.28;;
33902;SDS011;20194;50.950;5.346;2023-02-12T12:34:47;77.45;;;32.25;;
33902;SDS011;20194;50.950;5.346;2023-02-12T12:45:29;71.22;;;31.92;;
33902;SDS011;20194;50.950;5.346;2023-02-12T13:09:57;59.67;;;27.75;;
33902;SDS011;20194;50.950;5.346;2023-02-12T13:20:37;53.63;;;23.85;;
33902;SDS011;20194;50.950;5.346;2023-02-12T13:26:25;47.17;;;22.45;;
33902;SDS011;20194;50.950;5.346;2023-02-12T13:31:44;43.65;;;21.40;;
33902;SDS011;20194;50.950;5.346;2023-02-12T13:34:18;43.03;;;19.65;;
33902;SDS011;20194;50.950;5.346;2023-02-12T13:36:47;45.22;;;20.80;;
33902;SDS011;20194;50.950;5.346;2023-02-12T13:39:21;44.28;;;21.00;;
33902;SDS011;20194;50.950;5.346;2023-02-12T13:44:39;40.70;;;18.48;;
33902;SDS011;20194;50.950;5.346;2023-02-12T14:01:02;43.25;;;19.02;;
33902;SDS011;20194;50.950;5.346;2023-02-12T14:03:36;36.67;;;16.98;;
33902;SDS011;20194;50.950;5.346;2023-02-12T14:06:07;41.47;;;18.77;;
33902;SDS011;20194;50.950;5.346;2023-02-12T14:08:37;40.65;;;18.33;;
33902;SDS011;20194;50.950;5.346;2023-02-12T14:11:11;41.92;;;18.13;;
33902;SDS011;20194;50.950;5.346;2023-02-12T14:13:59;44.25;;;20.88;;
33902;SDS011;20194;50.950;5.346;2023-02-12T14:22:01;40.58;;;19.00;;
33902;SDS011;20194;50.950;5.346;2023-02-12T14:27:00;42.25;;;20.88;;
33902;SDS011;20194;50.950;5.346;2023-02-12T14:29:30;41.10;;;19.60;;
33902;SDS011;20194;50.950;5.346;2023-02-12T14:31:56;46.20;;;20.85;;
33902;SDS011;20194;50.950;5.346;2023-02-12T14:36:47;43.42;;;20.65;;
33902;SDS011;20194;50.950;5.346;2023-02-12T14:39:33;50.22;;;21.33;;
33902;SDS011;20194;50.950;5.346;2023-02-12T14:44:47;41.60;;;19.25;;
33902;SDS011;20194;50.950;5.346;2023-02-12T14:49:53;45.15;;;21.08;;
33902;SDS011;20194;50.950;5.346;2023-02-12T14:52:22;39.92;;;19.35;;
33902;SDS011;20194;50.950;5.346;2023-02-12T14:57:24;42.63;;;20.73;;
33902;SDS011;20194;50.950;5.346;2023-02-12T15:02:52;37.38;;;16.90;;
33902;SDS011;20194;50.950;5.346;2023-02-12T15:07:51;40.58;;;16.52;;
33902;SDS011;20194;50.950;5.346;2023-02-12T15:10:34;38.35;;;17.67;;
33902;SDS011;20194;50.950;5.346;2023-02-12T15:13:42;47.25;;;20.80;;
33902;SDS011;20194;50.950;5.346;2023-02-12T15:16:16;46.60;;;19.63;;
33902;SDS011;20194;50.950;5.346;2023-02-12T15:18:52;55.55;;;22.02;;
33902;SDS011;20194;50.950;5.346;2023-02-12T15:23:48;50.10;;;23.02;;
33902;SDS011;20194;50.950;5.346;2023-02-12T15:29:17;54.05;;;23.80;;
33902;SDS011;20194;50.950;5.346;2023-02-12T15:32:00;57.67;;;23.37;;
33902;SDS011;20194;50.950;5.346;2023-02-12T15:34:31;55.75;;;22.80;;
33902;SDS011;20194;50.950;5.346;2023-02-12T15:37:01;52.95;;;24.52;;
33902;SDS011;20194;50.950;5.346;2023-02-12T15:39:32;53.67;;;23.45;;
33902;SDS011;20194;50.950;5.346;2023-02-12T15:42:24;67.22;;;27.42;;
33902;SDS011;20194;50.950;5.346;2023-02-12T15:45:00;70.78;;;28.50;;
33902;SDS011;20194;50.950;5.346;2023-02-12T15:50:33;65.03;;;28.30;;
33902;SDS011;20194;50.950;5.346;2023-02-12T15:53:01;63.95;;;29.40;;
33902;SDS011;20194;50.950;5.346;2023-02-12T15:55:31;80.75;;;30.13;;
33902;SDS011;20194;50.950;5.346;2023-02-12T15:58:00;67.28;;;29.75;;
33902;SDS011;20194;50.950;5.346;2023-02-12T16:00:27;70.28;;;28.73;;
33902;SDS011;20194;50.950;5.346;2023-02-12T16:03:03;68.30;;;30.48;;
33902;SDS011;20194;50.950;5.346;2023-02-12T16:05:29;64.72;;;29.95;;
33902;SDS011;20194;50.950;5.346;2023-02-12T16:07:56;69.75;;;30.73;;
33902;SDS011;20194;50.950;5.346;2023-02-12T16:10:23;70.90;;;30.83;;
33902;SDS011;20194;50.950;5.346;2023-02-12T16:12:51;70.32;;;30.63;;
33902;SDS011;20194;50.950;5.346;2023-02-12T16:15:25;65.97;;;30.52;;
33902;SDS011;20194;50.950;5.346;2023-02-12T16:17:55;76.05;;;31.05;;
33902;SDS011;20194;50.950;5.346;2023-02-12T16:20:25;65.30;;;30.88;;
33902;SDS011;20194;50.950;5.346;2023-02-12T16:22:52;69.40;;;29.33;;
33902;SDS011;20194;50.950;5.346;2023-02-12T16:25:20;74.88;;;31.45;;
33902;SDS011;20194;50.950;5.346;2023-02-12T16:34:01;75.00;;;32.20;;
33902;SDS011;20194;50.950;5.346;2023-02-12T16:36:26;72.32;;;31.23;;
33902;SDS011;20194;50.950;5.346;2023-02-12T16:38:50;73.32;;;31.60;;
33902;SDS011;20194;50.950;5.346;2023-02-12T16:43:46;74.63;;;32.08;;
33902;SDS011;20194;50.950;5.346;2023-02-12T16:49:26;72.50;;;32.78;;
33902;SDS011;20194;50.950;5.346;2023-02-12T16:51:52;83.40;;;33.22;;
33902;SDS011;20194;50.950;5.346;2023-02-12T16:54:53;75.20;;;33.67;;
33902;SDS011;20194;50.950;5.346;2023-02-12T16:57:19;81.38;;;32.67;;
33902;SDS011;20194;50.950;5.346;2023-02-12T16:59:45;82.25;;;33.28;;
33902;SDS011;20194;50.950;5.346;2023-02-12T17:02:12;82.90;;;33.88;;
33902;SDS011;20194;50.950;5.346;2023-02-12T17:04:38;75.57;;;33.05;;
33902;SDS011;20194;50.950;5.346;2023-02-12T17:07:25;80.18;;;34.63;;
33902;SDS011;20194;50.950;5.346;2023-02-12T17:09:53;78.72;;;33.60;;
33902;SDS011;20194;50.950;5.346;2023-02-12T17:12:19;94.72;;;37.65;;
33902;SDS011;20194;50.950;5.346;2023-02-12T17:14:45;84.00;;;34.35;;
33902;SDS011;20194;50.950;5.346;2023-02-12T17:17:11;84.90;;;37.47;;
33902;SDS011;20194;50.950;5.346;2023-02-12T17:19:36;83.10;;;35.25;;
33902;SDS011;20194;50.950;5.346;2023-02-12T17:22:02;79.60;;;34.15;;
33902;SDS011;20194;50.950;5.346;2023-02-12T17:24:30;91.32;;;38.75;;
33902;SDS011;20194;50.950;5.346;2023-02-12T17:26:58;91.97;;;38.30;;
33902;SDS011;20194;50.950;5.346;2023-02-12T17:29:26;90.88;;;35.72;;
33902;SDS011;20194;50.950;5.346;2023-02-12T17:31:52;86.43;;;35.90;;
33902;SDS011;20194;50.950;5.346;2023-02-12T17:34:19;80.18;;;33.83;;
33902;SDS011;20194;50.950;5.346;2023-02-12T17:36:46;90.07;;;37.08;;
33902;SDS011;20194;50.950;5.346;2023-02-12T17:39:13;84.95;;;36.15;;
33902;SDS011;20194;50.950;5.346;2023-02-12T17:41:39;79.47;;;33.72;;
33902;SDS011;20194;50.950;5.346;2023-02-12T17:44:06;76.97;;;34.63;;
33902;SDS011;20194;50.950;5.346;2023-02-12T17:46:32;84.18;;;35.70;;
33902;SDS011;20194;50.950;5.346;2023-02-12T17:48:58;86.82;;;36.97;;
33902;SDS011;20194;50.950;5.346;2023-02-12T17:51:23;83.28;;;33.75;;
33902;SDS011;20194;50.950;5.346;2023-02-12T17:53:49;88.88;;;35.67;;
33902;SDS011;20194;50.950;5.346;2023-02-12T17:56:16;77.22;;;33.17;;
33902;SDS011;20194;50.950;5.346;2023-02-12T17:58:44;83.82;;;34.97;;
33902;SDS011;20194;50.950;5.346;2023-02-12T18:01:12;84.05;;;34.95;;
33902;SDS011;20194;50.950;5.346;2023-02-12T18:03:43;84.75;;;35.05;;
33902;SDS011;20194;50.950;5.346;2023-02-12T18:06:10;82.13;;;34.58;;
33902;SDS011;20194;50.950;5.346;2023-02-12T18:08:38;86.65;;;34.40;;
33902;SDS011;20194;50.950;5.346;2023-02-12T18:11:05;87.43;;;34.45;;